Time;durP1;ratioP1;P1;durP2;ratioP2;P2;SDS_P1;SDS_P2;PMS_P1;PMS_P2;Temp;Humidity;BMP_temperature;BMP_pressure;BME280_temperature;BME280_humidity;BME280_pressure;Samples;Min_cycle;Max_cycle;Signal;HPM_P1;HPM_P2
2022/11/02 00:00:33;;;;;;;10.57;1.88;;;12.70;99.90;;;;;;4995190;28;20053;-76
2022/11/02 00:02:59;;;;;;;10.88;2.10;;;12.80;99.90;;;;;;4993783;28;20058;-78
2022/11/02 00:05:25;;;;;;;10.93;1.80;;;12.60;99.90;;;;;;4993083;28;20046;-78
2022/11/02 00:07:52;;;;;;;7.10;1.70;;;12.60;99.90;;;;;;4993950;28;20069;-78
2022/11/02 00:10:18;;;;;;;9.30;1.70;;;12.60;99.90;;;;;;4993531;28;20053;-78
2022/11/02 00:12:44;;;;;;;13.43;2.33;;;12.50;99.90;;;;;;4994427;28;20053;-79
2022/11/02 00:15:10;;;;;;;7.22;1.67;;;12.70;99.90;;;;;;4994859;28;20046;-76
2022/11/02 00:17:36;;;;;;;11.55;2.20;;;12.50;99.90;;;;;;4993665;28;20046;-76
2022/11/02 00:20:05;;;;;;;7.25;1.90;;;12.50;99.90;;;;;;4993322;28;20053;-76
2022/11/02 00:22:32;;;;;;;6.18;1.33;;;12.50;99.90;;;;;;4993026;28;20084;-75
2022/11/02 00:25:03;;;;;;;8.35;2.45;;;12.50;99.90;;;;;;4993184;28;20042;-75
2022/11/02 00:27:30;;;;;;;9.20;1.90;;;12.30;99.90;;;;;;4993270;28;20081;-76
2022/11/02 00:29:55;;;;;;;8.40;1.88;;;12.30;99.90;;;;;;4993131;28;20085;-76
2022/11/02 00:32:21;;;;;;;12.05;3.05;;;12.30;99.90;;;;;;4992902;28;20073;-76
2022/11/02 00:34:46;;;;;;;8.90;1.98;;;12.40;99.90;;;;;;4993078;28;20408;-76
2022/11/02 00:37:12;;;;;;;12.13;2.78;;;12.40;99.90;;;;;;4993198;28;20501;-77
2022/11/02 00:39:37;;;;;;;21.63;3.17;;;12.30;99.90;;;;;;4993884;28;20046;-75
2022/11/02 00:42:03;;;;;;;11.20;2.22;;;12.30;99.90;;;;;;4993265;28;20045;-76
2022/11/02 00:44:29;;;;;;;14.00;3.80;;;12.40;99.90;;;;;;4994320;28;20049;-77
2022/11/02 00:46:54;;;;;;;8.57;1.77;;;12.30;99.90;;;;;;4994340;28;20570;-76
2022/11/02 00:49:20;;;;;;;6.10;1.10;;;12.20;99.90;;;;;;4992882;28;20050;-76
2022/11/02 00:51:46;;;;;;;5.00;1.20;;;11.90;99.90;;;;;;4992962;28;20050;-76
2022/11/02 00:54:11;;;;;;;10.98;1.58;;;11.80;99.90;;;;;;4976736;28;20483;-77
2022/11/02 00:56:37;;;;;;;7.10;1.10;;;11.90;99.90;;;;;;4994164;28;20169;-76
2022/11/02 00:59:04;;;;;;;5.05;0.90;;;11.70;99.90;;;;;;4992855;28;20566;-76
2022/11/02 01:01:29;;;;;;;7.28;0.80;;;11.70;99.90;;;;;;4993120;28;20034;-76
2022/11/02 01:03:56;;;;;;;3.63;0.82;;;11.70;99.90;;;;;;4992662;28;20049;-76
2022/11/02 01:06:22;;;;;;;8.77;1.00;;;11.70;99.90;;;;;;4992674;28;20047;-76
2022/11/02 01:08:47;;;;;;;3.33;0.70;;;11.60;99.90;;;;;;4992745;28;20045;-76
2022/11/02 01:11:16;;;;;;;1.90;0.75;;;11.70;99.90;;;;;;4992557;28;20042;-76
2022/11/02 01:13:42;;;;;;;3.90;0.80;;;11.40;99.90;;;;;;4992096;28;20050;-76
2022/11/02 01:16:08;;;;;;;3.97;0.80;;;11.30;99.90;;;;;;4975335;28;20129;-76
2022/11/02 01:18:34;;;;;;;3.10;0.95;;;11.30;99.90;;;;;;4992564;28;20137;-75
2022/11/02 01:20:59;;;;;;;3.95;0.57;;;11.30;99.90;;;;;;4992357;28;20046;-76
2022/11/02 01:23:25;;;;;;;1.65;0.60;;;11.40;99.90;;;;;;4992254;28;20104;-76
2022/11/02 01:25:51;;;;;;;3.92;0.88;;;11.40;99.90;;;;;;4992185;28;20034;-76
2022/11/02 01:28:16;;;;;;;3.63;0.75;;;11.30;99.90;;;;;;4991921;28;20046;-77
2022/11/02 01:30:42;;;;;;;2.33;0.75;;;11.20;99.90;;;;;;4992164;28;20046;-76
2022/11/02 01:33:08;;;;;;;2.50;0.70;;;11.30;99.90;;;;;;4992983;28;20046;-76
2022/11/02 01:35:35;;;;;;;2.50;0.70;;;11.10;99.90;;;;;;4993171;28;20121;-77
2022/11/02 01:38:01;;;;;;;3.08;0.88;;;11.40;99.90;;;;;;4993316;28;20050;-77
2022/11/02 01:40:27;;;;;;;2.08;0.63;;;11.40;99.90;;;;;;4993311;28;20034;-76
2022/11/02 01:42:52;;;;;;;4.57;0.90;;;11.30;99.90;;;;;;4992908;28;20041;-77
2022/11/02 01:45:18;;;;;;;2.03;0.90;;;11.30;99.90;;;;;;4975784;28;20041;-76
2022/11/02 01:47:47;;;;;;;2.42;0.70;;;11.20;99.90;;;;;;4991863;28;20117;-76
2022/11/02 01:50:25;;;;;;;3.75;0.90;;;11.10;99.90;;;;;;4991860;28;20519;-76
2022/11/02 01:52:52;;;;;;;2.40;0.93;;;11.00;99.90;;;;;;4992987;28;20081;-76
2022/11/02 01:55:24;;;;;;;5.80;1.00;;;11.10;99.90;;;;;;4991758;28;20049;-76
2022/11/02 01:57:57;;;;;;;5.93;1.30;;;11.00;99.90;;;;;;4991722;28;20053;-76
2022/11/02 02:00:23;;;;;;;;;;;11.10;99.90;;;;;;4992088;28;20050;-76
2022/11/02 02:03:21;;;;;;;1.00;0.50;;;10.90;99.90;;;;;;4991608;28;19918;-76
2022/11/02 02:06:00;;;;;;;2.95;1.65;;;10.90;99.90;;;;;;4988711;28;20504;-76
2022/11/02 02:08:27;;;;;;;2.72;0.70;;;11.10;99.90;;;;;;4991728;28;20038;-76
2022/11/02 02:10:57;;;;;;;4.40;0.98;;;11.20;99.90;;;;;;4991654;28;20404;-76
2022/11/02 02:13:25;;;;;;;3.45;0.93;;;11.20;99.90;;;;;;4991146;28;20180;-76
2022/11/02 02:16:06;;;;;;;3.78;1.08;;;11.00;99.90;;;;;;4991460;28;20121;-76
2022/11/02 02:18:44;;;;;;;2.17;0.98;;;11.10;99.90;;;;;;4991700;28;20069;-77
2022/11/02 02:21:22;;;;;;;5.10;1.55;;;11.30;99.90;;;;;;4991290;28;20117;-76
2022/11/02 02:24:25;;;;;;;9.48;2.17;;;11.30;99.90;;;;;;4990877;28;20057;-76
2022/11/02 02:27:30;;;;;;;12.57;2.25;;;11.20;99.90;;;;;;4992207;28;20567;-76
2022/11/02 02:30:10;;;;;;;3.72;1.70;;;11.20;99.90;;;;;;4990971;28;20046;-76
2022/11/02 02:32:52;;;;;;;8.73;2.45;;;11.20;99.90;;;;;;4990794;28;20050;-76
2022/11/02 02:35:25;;;;;;;7.07;2.47;;;11.30;99.90;;;;;;4991234;28;20051;-76
2022/11/02 02:38:09;;;;;;;8.20;2.80;;;11.40;99.90;;;;;;4991398;28;20122;-76
2022/11/02 02:40:37;;;;;;;19.17;4.28;;;11.30;99.90;;;;;;4991545;28;20052;-76
2022/11/02 02:43:14;;;;;;;12.25;3.13;;;11.30;99.90;;;;;;4990696;28;20050;-76
2022/11/02 02:45:45;;;;;;;10.00;3.22;;;11.50;99.90;;;;;;4991630;28;20050;-76
2022/11/02 02:48:19;;;;;;;10.38;2.90;;;11.50;99.90;;;;;;4991160;28;20137;-76
2022/11/02 02:50:48;;;;;;;7.60;2.70;;;11.50;99.90;;;;;;4991555;28;20046;-76
2022/11/02 02:53:18;;;;;;;14.77;2.92;;;11.60;99.90;;;;;;4990634;28;20066;-76
2022/11/02 02:55:46;;;;;;;12.32;2.88;;;11.50;99.90;;;;;;4991281;28;20133;-77
2022/11/02 02:58:18;;;;;;;11.57;3.13;;;11.30;99.90;;;;;;4975002;28;20038;-77
2022/11/02 03:00:44;;;;;;;11.95;2.22;;;11.30;99.90;;;;;;4991079;28;20038;-76
2022/11/02 03:03:22;;;;;;;10.02;2.40;;;11.30;99.90;;;;;;4990802;28;20415;-76
2022/11/02 03:06:15;;;;;;;10.93;1.95;;;11.30;99.90;;;;;;4991003;28;20085;-76
2022/11/02 03:08:47;;;;;;;11.35;2.22;;;11.40;99.90;;;;;;4990804;28;20053;-76
2022/11/02 03:11:15;;;;;;;7.85;1.65;;;11.30;99.90;;;;;;4990893;28;20555;-77
2022/11/02 03:14:14;;;;;;;10.85;1.85;;;11.30;99.90;;;;;;4990542;28;20054;-76
2022/11/02 03:16:43;;;;;;;9.23;1.38;;;11.40;99.90;;;;;;4990728;28;20490;-76
2022/11/02 03:19:27;;;;;;;8.52;1.80;;;11.40;99.90;;;;;;4990983;28;20053;-76
2022/11/02 03:22:00;;;;;;;7.47;2.10;;;11.30;99.90;;;;;;4992003;28;20527;-76
2022/11/02 03:24:35;;;;;;;7.43;1.92;;;11.20;99.90;;;;;;4990503;28;20042;-76
2022/11/02 03:27:20;;;;;;;4.60;1.60;;;11.10;99.90;;;;;;4990808;28;20139;-76
2022/11/02 03:30:06;;;;;;;6.03;1.95;;;11.20;99.90;;;;;;4990474;28;20042;-76
2022/11/02 03:32:48;;;;;;;6.15;1.08;;;11.20;99.90;;;;;;4990362;28;20074;-77
2022/11/02 03:35:24;;;;;;;3.65;1.10;;;11.00;99.90;;;;;;4990630;28;20058;-76
2022/11/02 03:37:59;;;;;;;4.90;1.17;;;11.10;99.90;;;;;;4990863;28;20100;-76
2022/11/02 03:40:30;;;;;;;3.95;1.25;;;11.00;99.90;;;;;;4993206;28;20086;-76
2022/11/02 03:42:57;;;;;;;8.55;1.35;;;11.10;99.90;;;;;;4994188;28;20527;-76
2022/11/02 03:45:30;;;;;;;6.47;1.98;;;10.90;99.90;;;;;;4994084;28;20234;-76
2022/11/02 03:48:00;;;;;;;4.75;1.65;;;10.90;99.90;;;;;;4994106;28;20377;-76
2022/11/02 03:50:26;;;;;;;9.68;2.53;;;10.90;99.90;;;;;;4994045;28;20042;-76
2022/11/02 03:52:59;;;;;;;8.18;2.15;;;11.10;99.90;;;;;;4993484;28;20071;-76
2022/11/02 03:55:32;;;;;;;11.88;1.98;;;10.90;99.90;;;;;;4994243;28;20042;-76
2022/11/02 03:57:58;;;;;;;13.77;1.92;;;10.80;99.90;;;;;;4995347;28;20112;-76
2022/11/02 04:00:25;;;;;;;8.30;2.30;;;10.90;99.90;;;;;;4994158;28;20113;-76
2022/11/02 04:02:57;;;;;;;5.13;1.08;;;10.80;99.90;;;;;;4993683;28;20043;-77
2022/11/02 04:05:35;;;;;;;11.07;3.00;;;10.80;99.90;;;;;;4993665;28;20042;-77
2022/11/02 04:08:21;;;;;;;9.50;1.17;;;10.90;99.90;;;;;;4993790;28;20400;-77
2022/11/02 04:16:17;;;;;;;9.15;1.50;;;10.80;99.90;;;;;;4993605;28;20128;-77
2022/11/02 04:21:27;;;;;;;5.75;2.33;;;10.90;99.90;;;;;;4994803;28;20077;-76
2022/11/02 04:26:37;;;;;;;10.48;2.05;;;10.80;99.90;;;;;;4993362;28;20050;-77
2022/11/02 04:29:03;;;;;;;10.65;1.40;;;10.90;99.90;;;;;;4993310;28;20050;-77
2022/11/02 04:31:29;;;;;;;4.57;1.20;;;10.90;99.90;;;;;;4993531;28;20050;-77
2022/11/02 04:33:57;;;;;;;9.25;2.03;;;10.80;99.90;;;;;;4992900;28;20512;-76
2022/11/02 04:36:22;;;;;;;5.05;1.52;;;10.80;99.90;;;;;;4993048;28;20046;-76
2022/11/02 04:38:48;;;;;;;8.13;1.67;;;11.00;99.90;;;;;;4992942;28;20042;-77
2022/11/02 04:44:00;;;;;;;3.92;1.40;;;10.80;99.90;;;;;;4992792;28;20117;-76
2022/11/02 04:46:28;;;;;;;9.50;1.55;;;11.00;99.90;;;;;;4992938;28;20098;-77
2022/11/02 04:48:54;;;;;;;6.00;1.30;;;10.90;99.90;;;;;;4992735;28;20112;-77
2022/11/02 04:51:21;;;;;;;7.38;1.88;;;10.90;99.90;;;;;;4992951;28;20069;-77
2022/11/02 04:53:48;;;;;;;8.82;1.58;;;10.90;99.90;;;;;;4992661;28;20124;-77
2022/11/02 04:56:14;;;;;;;11.50;2.20;;;11.00;99.90;;;;;;4992803;28;20049;-77
2022/11/02 04:58:40;;;;;;;5.97;1.83;;;11.00;99.90;;;;;;4992677;28;20053;-76
2022/11/02 05:01:07;;;;;;;6.95;1.77;;;10.90;99.90;;;;;;4992988;28;20505;-76
2022/11/02 05:03:33;;;;;;;15.98;3.70;;;10.90;99.90;;;;;;4992497;28;20039;-77
2022/11/02 05:05:58;;;;;;;7.97;1.88;;;10.90;99.90;;;;;;4992631;28;20100;-77
2022/11/02 05:08:24;;;;;;;7.93;2.50;;;11.00;99.90;;;;;;4992601;28;20133;-76
2022/11/02 05:10:56;;;;;;;10.15;2.30;;;10.90;99.90;;;;;;4992482;28;20644;-76
2022/11/02 05:13:23;;;;;;;5.80;1.75;;;10.80;99.90;;;;;;4992295;28;20174;-77
2022/11/02 05:15:49;;;;;;;5.95;1.50;;;11.00;99.90;;;;;;4992737;28;20046;-76
2022/11/02 05:18:15;;;;;;;8.65;2.13;;;10.80;99.90;;;;;;4992177;28;20041;-77
2022/11/02 05:20:41;;;;;;;10.60;2.28;;;11.00;99.90;;;;;;4992286;28;20042;-77
2022/11/02 05:23:06;;;;;;;11.55;2.38;;;10.90;99.90;;;;;;4992089;28;20038;-76
2022/11/02 05:25:32;;;;;;;13.07;2.15;;;10.90;99.90;;;;;;4992630;28;20045;-76
2022/11/02 05:27:58;;;;;;;7.25;2.25;;;10.80;99.90;;;;;;4991971;28;20493;-77
2022/11/02 05:30:23;;;;;;;11.23;3.35;;;10.80;99.90;;;;;;4992452;28;20038;-76
2022/11/02 05:32:49;;;;;;;7.75;2.88;;;10.90;99.90;;;;;;4991687;28;20038;-77
2022/11/02 05:35:14;;;;;;;5.65;2.55;;;10.80;99.90;;;;;;4992188;28;20039;-76
2022/11/02 05:37:40;;;;;;;12.10;3.20;;;11.00;99.90;;;;;;4992111;28;20503;-76
2022/11/02 05:40:07;;;;;;;11.35;2.63;;;11.00;99.90;;;;;;4991973;28;20085;-76
2022/11/02 05:42:33;;;;;;;12.90;3.00;;;10.90;99.90;;;;;;4991593;28;20053;-77
2022/11/02 05:44:58;;;;;;;9.88;4.03;;;10.70;99.90;;;;;;4992223;28;20042;-76
2022/11/02 05:47:24;;;;;;;8.45;2.42;;;11.00;99.90;;;;;;4991870;28;20496;-76
2022/11/02 05:49:49;;;;;;;12.80;3.17;;;10.80;99.90;;;;;;4991996;28;20077;-76
2022/11/02 05:52:15;;;;;;;13.88;2.63;;;10.70;99.90;;;;;;4991731;28;20050;-77
2022/11/02 05:54:41;;;;;;;14.57;2.95;;;10.80;99.90;;;;;;4991742;28;20034;-77
2022/11/02 05:57:06;;;;;;;11.25;2.53;;;10.70;99.90;;;;;;4991930;28;20122;-76
2022/11/02 05:59:32;;;;;;;12.90;2.65;;;10.70;99.90;;;;;;4992910;28;20073;-77
2022/11/02 06:01:57;;;;;;;12.07;2.58;;;10.80;99.90;;;;;;4991371;28;20036;-76
2022/11/02 06:04:23;;;;;;;10.80;3.05;;;10.70;99.90;;;;;;4991333;28;20049;-76
2022/11/02 06:06:48;;;;;;;15.98;3.60;;;10.60;99.90;;;;;;4991470;28;20103;-77
2022/11/02 06:09:14;;;;;;;16.17;3.22;;;10.80;99.90;;;;;;4991442;28;20488;-77
2022/11/02 06:11:39;;;;;;;13.45;2.58;;;10.80;99.90;;;;;;4991729;28;20060;-76
2022/11/02 06:14:05;;;;;;;14.07;4.20;;;10.90;99.90;;;;;;4991236;28;20116;-76
2022/11/02 06:16:30;;;;;;;13.55;2.53;;;10.90;99.90;;;;;;4991941;28;20400;-77
2022/11/02 06:18:56;;;;;;;12.68;2.42;;;10.70;99.90;;;;;;4991288;28;20493;-76
2022/11/02 06:21:21;;;;;;;9.13;2.63;;;10.80;99.90;;;;;;4991490;28;20053;-76
2022/11/02 06:23:47;;;;;;;9.32;2.35;;;10.80;99.90;;;;;;4990963;28;20057;-76
2022/11/02 06:26:13;;;;;;;13.70;3.00;;;10.90;99.90;;;;;;4992905;28;20042;-77
2022/11/02 06:28:39;;;;;;;13.05;2.80;;;10.60;99.90;;;;;;4992234;28;20050;-76
2022/11/02 06:31:04;;;;;;;7.45;2.40;;;10.70;99.90;;;;;;4991300;28;20057;-76
2022/11/02 06:33:30;;;;;;;11.85;2.63;;;10.90;99.90;;;;;;4990855;28;20060;-76
2022/11/02 06:35:56;;;;;;;7.57;2.40;;;10.70;99.90;;;;;;4991108;28;20045;-76
2022/11/02 06:38:22;;;;;;;11.90;2.70;;;11.00;99.90;;;;;;4991000;28;20500;-77
2022/11/02 06:41:03;;;;;;;11.88;2.72;;;10.90;99.90;;;;;;4991088;28;20093;-76
2022/11/02 06:43:28;;;;;;;10.73;3.47;;;10.80;99.90;;;;;;4990698;28;20057;-77
2022/11/02 06:45:55;;;;;;;13.18;3.10;;;10.80;99.90;;;;;;4991149;28;20124;-76
2022/11/02 06:48:21;;;;;;;15.02;2.88;;;10.80;99.90;;;;;;4990793;28;20488;-76
2022/11/02 06:50:46;;;;;;;10.20;2.60;;;11.00;99.90;;;;;;4991253;28;20052;-76
2022/11/02 06:53:12;;;;;;;9.63;3.15;;;11.10;99.90;;;;;;4990758;28;20050;-77
2022/11/02 06:55:38;;;;;;;9.13;2.42;;;11.10;99.90;;;;;;4990969;28;20038;-77
2022/11/02 06:58:03;;;;;;;10.40;3.20;;;10.90;99.90;;;;;;4992346;28;20043;-76
2022/11/02 07:00:29;;;;;;;15.30;3.60;;;10.90;99.90;;;;;;4992086;28;20038;-79
2022/11/02 07:03:08;;;;;;;15.05;2.45;;;11.20;99.90;;;;;;4990720;28;20046;-77
2022/11/02 07:05:35;;;;;;;10.63;3.17;;;11.20;99.90;;;;;;4991339;28;20493;-78
2022/11/02 07:08:01;;;;;;;17.20;3.08;;;11.10;99.90;;;;;;4990396;28;20042;-76
2022/11/02 07:10:26;;;;;;;9.43;2.88;;;11.20;99.90;;;;;;4990852;28;20412;-78
2022/11/02 07:12:56;;;;;;;12.50;3.05;;;11.10;99.90;;;;;;4990434;28;20065;-78
2022/11/02 07:15:23;;;;;;;14.55;3.05;;;11.30;99.90;;;;;;4993471;28;20034;-77
2022/11/02 07:17:49;;;;;;;12.27;2.70;;;11.10;99.90;;;;;;4994813;28;20416;-77
2022/11/02 07:20:15;;;;;;;11.02;3.20;;;11.30;99.90;;;;;;4994350;28;20042;-77
2022/11/02 07:22:41;;;;;;;13.05;3.35;;;11.20;99.90;;;;;;4994464;28;20071;-76
2022/11/02 07:25:07;;;;;;;12.45;3.00;;;11.20;99.90;;;;;;4995618;28;20478;-77
2022/11/02 07:27:39;;;;;;;10.77;2.72;;;11.30;99.90;;;;;;4995750;28;20437;-78
2022/11/02 07:30:05;;;;;;;13.35;3.90;;;11.30;99.90;;;;;;4994504;28;20145;-76
2022/11/02 07:32:38;;;;;;;19.38;3.45;;;11.30;99.90;;;;;;4993825;28;20117;-75
2022/11/02 07:35:05;;;;;;;25.00;10.10;;;11.50;99.90;;;;;;4994631;28;20042;-78
2022/11/02 07:37:31;;;;;;;16.35;5.93;;;11.40;99.90;;;;;;4994866;28;20030;-77
2022/11/02 07:39:56;;;;;;;28.58;12.63;;;11.20;99.90;;;;;;4995243;28;20543;-78
2022/11/02 07:42:22;;;;;;;12.05;3.63;;;11.50;99.90;;;;;;4994363;28;20045;-76
2022/11/02 07:44:47;;;;;;;11.75;3.55;;;11.20;99.90;;;;;;4994638;28;20050;-78
2022/11/02 07:47:13;;;;;;;14.73;3.30;;;11.40;99.90;;;;;;4994697;28;20125;-78
2022/11/02 07:49:38;;;;;;;12.90;3.05;;;11.40;99.90;;;;;;4994238;28;20042;-77
2022/11/02 07:52:04;;;;;;;18.98;3.25;;;11.30;99.90;;;;;;4995952;28;20053;-80
2022/11/02 07:54:29;;;;;;;12.65;2.50;;;11.40;99.90;;;;;;4996060;28;20046;-77
2022/11/02 07:56:55;;;;;;;10.40;2.70;;;11.30;99.90;;;;;;4995710;28;20129;-76
2022/11/02 07:59:21;;;;;;;19.75;3.05;;;11.50;99.90;;;;;;4996659;28;20085;-77
2022/11/02 08:01:46;;;;;;;12.75;2.75;;;11.50;99.90;;;;;;5002983;28;20030;-77
2022/11/02 08:04:12;;;;;;;14.95;2.83;;;11.50;99.90;;;;;;5008127;28;20041;-77
2022/11/02 08:06:37;;;;;;;11.65;2.45;;;11.30;99.90;;;;;;5015065;28;20041;-77
2022/11/02 08:09:03;;;;;;;15.45;3.28;;;11.50;99.90;;;;;;5013665;28;20481;-77
2022/11/02 08:11:28;;;;;;;21.58;5.93;;;11.50;99.90;;;;;;5014599;28;20153;-79
2022/11/02 08:13:54;;;;;;;12.68;3.08;;;11.30;99.90;;;;;;5019602;28;20050;-79
2022/11/02 08:16:19;;;;;;;8.68;2.10;;;11.50;99.90;;;;;;5013986;28;20064;-78
2022/11/02 08:18:45;;;;;;;5.50;2.58;;;11.50;99.90;;;;;;5006030;28;20515;-77
2022/11/02 08:21:10;;;;;;;13.30;2.10;;;11.40;99.90;;;;;;4993385;28;20042;-75
2022/11/02 08:23:36;;;;;;;10.52;2.40;;;11.40;99.90;;;;;;4992908;28;20043;-75
2022/11/02 08:26:01;;;;;;;8.40;2.53;;;11.40;99.90;;;;;;4992701;28;20050;-76
2022/11/02 08:28:30;;;;;;;11.20;2.22;;;11.60;99.90;;;;;;4993010;28;20440;-76
2022/11/02 08:30:57;;;;;;;8.90;1.77;;;11.60;99.90;;;;;;4993498;28;20042;-76
2022/11/02 08:33:23;;;;;;;9.35;1.80;;;11.40;99.90;;;;;;4992851;28;20070;-76
2022/11/02 08:35:49;;;;;;;8.15;1.55;;;11.50;99.90;;;;;;4993096;28;20479;-77
2022/11/02 08:38:16;;;;;;;10.38;1.50;;;11.50;99.90;;;;;;4992965;28;20049;-78
2022/11/02 08:40:41;;;;;;;5.35;1.70;;;11.60;99.90;;;;;;4993034;28;20038;-77
2022/11/02 08:43:12;;;;;;;6.75;1.45;;;11.50;99.90;;;;;;4992715;28;20518;-77
2022/11/02 08:45:40;;;;;;;7.38;2.13;;;11.60;99.90;;;;;;4993443;28;20073;-76
2022/11/02 08:48:06;;;;;;;7.10;2.13;;;11.40;99.90;;;;;;4993096;28;20046;-77
2022/11/02 08:50:32;;;;;;;11.68;1.98;;;11.40;99.90;;;;;;4993109;28;20519;-77
2022/11/02 08:52:57;;;;;;;10.90;2.30;;;11.50;99.90;;;;;;4992679;28;20050;-77
2022/11/02 08:55:23;;;;;;;11.88;2.55;;;11.60;99.90;;;;;;4992809;28;20049;-76
2022/11/02 08:57:53;;;;;;;10.30;1.45;;;11.60;99.90;;;;;;4993869;28;20034;-77
2022/11/02 09:00:21;;;;;;;9.32;1.67;;;11.50;99.90;;;;;;4992738;28;20053;-77
2022/11/02 09:03:00;;;;;;;4.43;1.60;;;11.60;99.90;;;;;;4993755;28;20492;-76
2022/11/02 09:05:27;;;;;;;5.50;1.80;;;11.70;99.90;;;;;;4992671;28;20067;-77
2022/11/02 09:07:55;;;;;;;6.28;1.40;;;11.70;99.90;;;;;;4993910;28;20070;-76
2022/11/02 09:10:21;;;;;;;9.10;1.77;;;11.80;99.90;;;;;;4993354;28;20467;-77
2022/11/02 09:12:46;;;;;;;6.18;1.77;;;11.80;99.90;;;;;;4992164;28;20038;-77
2022/11/02 09:15:12;;;;;;;13.07;2.08;;;11.90;99.90;;;;;;4993626;28;20058;-78
2022/11/02 09:17:37;;;;;;;9.52;1.92;;;12.10;99.90;;;;;;4993812;28;20492;-76
2022/11/02 09:20:03;;;;;;;9.27;1.58;;;12.00;99.90;;;;;;4994755;28;20389;-77
2022/11/02 09:22:29;;;;;;;8.65;2.83;;;12.20;99.90;;;;;;4991933;28;20045;-76
2022/11/02 09:24:55;;;;;;;15.90;3.60;;;12.10;99.90;;;;;;4992197;28;20138;-79
2022/11/02 09:27:20;;;;;;;26.70;10.07;;;12.20;99.90;;;;;;4993667;28;20436;-78
2022/11/02 09:29:49;;;;;;;12.32;2.38;;;12.20;99.90;;;;;;4997108;28;20096;-78
2022/11/02 09:32:14;;;;;;;5.05;1.92;;;12.20;99.90;;;;;;4996969;28;20615;-81
2022/11/02 09:34:40;;;;;;;10.68;1.92;;;12.20;99.90;;;;;;5007603;28;20128;-78
2022/11/02 09:37:05;;;;;;;6.43;1.73;;;12.30;99.90;;;;;;5011175;28;20104;-76
2022/11/02 09:39:31;;;;;;;7.13;1.20;;;12.30;99.90;;;;;;5011893;28;20044;-76
2022/11/02 09:42:27;;;;;;;7.75;2.40;;;12.20;99.90;;;;;;5011451;28;20077;-77
2022/11/02 09:45:01;;;;;;;7.35;2.30;;;12.30;99.90;;;;;;5011695;28;20041;-76
2022/11/02 09:47:29;;;;;;;13.93;1.95;;;12.50;99.90;;;;;;5012819;28;20053;-77
2022/11/02 09:49:57;;;;;;;7.97;1.75;;;12.50;99.90;;;;;;5011336;28;20109;-77
2022/11/02 09:52:34;;;;;;;12.70;1.80;;;12.50;99.90;;;;;;5011465;28;20050;-78
2022/11/02 09:55:10;;;;;;;6.53;2.28;;;12.50;99.90;;;;;;5011245;28;20082;-78
2022/11/02 09:57:38;;;;;;;8.32;1.48;;;12.50;99.90;;;;;;5002750;28;20042;-78
2022/11/02 10:00:04;;;;;;;10.93;1.98;;;12.60;99.90;;;;;;4983170;28;20132;-77
2022/11/02 10:02:54;;;;;;;11.65;2.05;;;12.70;99.90;;;;;;4991164;28;20097;-78
2022/11/02 10:05:41;;;;;;;7.82;1.70;;;12.80;99.90;;;;;;4991741;28;20038;-78
2022/11/02 10:08:25;;;;;;;10.07;1.83;;;13.00;99.90;;;;;;4991699;28;20042;-77
2022/11/02 10:11:33;;;;;;;8.13;1.70;;;13.10;99.90;;;;;;4991415;28;20046;-79
2022/11/02 10:14:12;;;;;;;8.65;1.67;;;13.20;99.90;;;;;;4971660;28;20125;-78
2022/11/02 10:16:49;;;;;;;10.95;1.40;;;13.30;99.90;;;;;;4972144;28;20496;-78
2022/11/02 10:19:18;;;;;;;8.30;2.05;;;13.30;99.90;;;;;;4981298;28;20035;-77
2022/11/02 10:21:47;;;;;;;12.30;2.10;;;13.30;99.90;;;;;;4994979;28;20030;-80
2022/11/02 10:24:50;;;;;;;8.00;1.85;;;13.30;99.90;;;;;;4995774;28;20074;-80
2022/11/02 10:27:22;;;;;;;7.80;1.42;;;13.20;99.90;;;;;;5002677;28;20043;-80
2022/11/02 10:30:14;;;;;;;7.60;2.50;;;13.30;99.90;;;;;;4998596;28;20523;-80
2022/11/02 10:32:41;;;;;;;7.97;1.42;;;13.30;99.90;;;;;;4995990;28;20520;-80
2022/11/02 10:35:40;;;;;;;11.23;2.10;;;13.30;99.90;;;;;;4992120;28;20123;-77
2022/11/02 10:38:36;;;;;;;8.85;1.98;;;13.20;99.90;;;;;;4966792;28;20104;-76
2022/11/02 10:41:22;;;;;;;12.90;2.00;;;13.10;99.90;;;;;;4990996;28;20431;-77
2022/11/02 10:44:19;;;;;;;10.35;1.70;;;12.90;99.90;;;;;;4990699;28;20050;-77
2022/11/02 10:47:03;;;;;;;11.68;1.80;;;12.90;99.90;;;;;;4991048;28;20046;-77
2022/11/02 10:49:56;;;;;;;16.20;2.63;;;12.90;99.90;;;;;;4995784;28;20122;-78
2022/11/02 10:52:22;;;;;;;7.72;2.33;;;12.90;99.90;;;;;;4996064;28;20403;-79
2022/11/02 10:54:50;;;;;;;7.43;1.65;;;13.00;99.90;;;;;;4996290;28;20042;-79
2022/11/02 10:57:22;;;;;;;8.27;1.52;;;13.00;99.90;;;;;;4996516;28;20509;-78
2022/11/02 11:00:25;;;;;;;12.75;2.53;;;13.10;99.90;;;;;;4996237;28;20047;-78
2022/11/02 11:03:04;;;;;;;7.25;1.55;;;13.10;99.90;;;;;;4994868;28;20042;-76
2022/11/02 11:05:30;;;;;;;10.27;2.75;;;13.30;99.90;;;;;;4994868;28;20049;-76
2022/11/02 11:07:56;;;;;;;7.55;1.20;;;13.30;99.90;;;;;;4994719;28;20045;-77
2022/11/02 11:10:23;;;;;;;8.75;1.55;;;13.30;99.90;;;;;;4994705;28;20034;-76
2022/11/02 11:12:49;;;;;;;7.15;1.75;;;13.30;99.90;;;;;;4994620;28;20192;-77
2022/11/02 11:15:24;;;;;;;10.55;2.80;;;13.30;99.90;;;;;;4994747;28;20555;-77
2022/11/02 11:17:50;;;;;;;12.43;1.30;;;13.30;99.90;;;;;;4994661;28;20042;-77
2022/11/02 11:20:34;;;;;;;10.73;2.70;;;13.30;99.90;;;;;;4994483;28;20057;-77
2022/11/02 11:23:21;;;;;;;6.63;1.60;;;13.30;99.90;;;;;;4995531;28;20038;-78
2022/11/02 11:25:58;;;;;;;10.10;2.13;;;13.50;99.90;;;;;;4994835;28;20042;-80
2022/11/02 11:28:25;;;;;;;9.07;2.15;;;13.60;99.90;;;;;;4994642;28;20042;-77
2022/11/02 11:31:07;;;;;;;11.30;1.85;;;13.60;99.90;;;;;;4995591;28;20053;-78
2022/11/02 11:33:57;;;;;;;10.10;1.98;;;13.60;99.90;;;;;;4997552;28;20050;-78
2022/11/02 11:36:33;;;;;;;9.68;1.75;;;13.60;99.90;;;;;;4994415;28;20399;-77
2022/11/02 11:39:06;;;;;;;9.48;1.65;;;13.70;99.90;;;;;;4994139;28;20145;-76
2022/11/02 11:41:33;;;;;;;16.98;1.90;;;13.70;99.90;;;;;;4994237;28;20109;-76
2022/11/02 11:44:01;;;;;;;8.15;2.00;;;13.80;99.90;;;;;;4993770;28;20046;-77
2022/11/02 11:46:45;;;;;;;8.43;1.55;;;13.80;99.90;;;;;;4994183;28;20432;-79
2022/11/02 11:49:40;;;;;;;8.23;1.65;;;13.70;99.90;;;;;;4995699;28;20053;-77
2022/11/02 11:52:05;;;;;;;5.90;1.60;;;13.70;99.90;;;;;;4994398;28;20424;-76
2022/11/02 11:54:32;;;;;;;8.65;1.40;;;13.70;99.90;;;;;;4995294;28;20034;-77
2022/11/02 11:56:58;;;;;;;6.88;1.73;;;13.80;99.90;;;;;;4995356;28;20042;-76
2022/11/02 11:59:31;;;;;;;8.80;1.17;;;13.80;99.90;;;;;;4993539;28;20093;-76
2022/11/02 12:02:01;;;;;;;5.63;1.65;;;13.80;99.90;;;;;;4993773;28;20444;-77
2022/11/02 12:04:34;;;;;;;9.43;1.60;;;13.70;99.90;;;;;;4993261;28;20046;-75
2022/11/02 12:07:29;;;;;;;6.15;1.10;;;13.80;99.90;;;;;;4998878;28;20046;-77
2022/11/02 12:10:15;;;;;;;7.93;1.20;;;13.70;99.90;;;;;;4942642;28;20094;-79
2022/11/02 12:13:08;;;;;;;8.57;1.50;;;13.70;99.90;;;;;;4993633;28;20050;-76
2022/11/02 12:15:58;;;;;;;8.38;1.77;;;13.70;99.90;;;;;;4993669;28;20499;-76
2022/11/02 12:18:43;;;;;;;8.77;1.30;;;13.80;99.60;;;;;;4993729;28;20096;-74
2022/11/02 12:21:18;;;;;;;8.30;1.50;;;13.80;99.90;;;;;;4995075;28;20415;-78
2022/11/02 12:24:08;;;;;;;7.20;1.27;;;13.80;99.70;;;;;;4993418;28;20046;-75
2022/11/02 12:26:40;;;;;;;7.00;1.50;;;13.70;99.90;;;;;;4993499;28;20069;-76
2022/11/02 12:29:32;;;;;;;10.30;1.70;;;13.70;99.90;;;;;;4993096;28;20046;-75
2022/11/02 12:32:20;;;;;;;7.60;1.48;;;13.70;99.90;;;;;;4993279;28;20042;-76
2022/11/02 12:35:07;;;;;;;6.22;1.40;;;13.60;99.90;;;;;;4993079;28;20113;-76
2022/11/02 12:37:49;;;;;;;36.33;10.15;;;13.80;99.90;;;;;;4992995;28;20121;-76
2022/11/02 12:40:31;;;;;;;6.60;1.48;;;13.80;99.90;;;;;;4992935;28;20074;-76
2022/11/02 12:43:03;;;;;;;10.38;1.65;;;13.80;99.90;;;;;;4993029;28;20042;-76
2022/11/02 12:45:34;;;;;;;8.40;1.40;;;13.90;99.90;;;;;;4993055;28;20046;-76
2022/11/02 12:48:02;;;;;;;10.10;2.00;;;13.90;99.90;;;;;;4993182;28;20046;-76
2022/11/02 12:50:52;;;;;;;9.13;1.50;;;13.90;99.90;;;;;;4992767;28;20045;-75
2022/11/02 12:53:25;;;;;;;7.07;1.52;;;13.90;99.90;;;;;;4992511;28;20042;-75
2022/11/02 12:55:55;;;;;;;6.97;1.73;;;14.00;99.90;;;;;;4992721;28;20034;-75
2022/11/02 12:58:26;;;;;;;5.93;1.45;;;14.00;99.00;;;;;;4996812;28;20043;-75
2022/11/02 13:01:04;;;;;;;9.00;2.30;;;14.00;97.80;;;;;;5002484;28;20030;-75
2022/11/02 13:03:53;;;;;;;10.15;3.03;;;14.00;98.50;;;;;;5008856;28;20115;-75
2022/11/02 13:06:37;;;;;;;11.65;1.95;;;14.00;98.50;;;;;;5012422;28;20049;-74
2022/11/02 13:09:09;;;;;;;;;;;13.90;98.20;;;;;;5001772;28;20034;-75
2022/11/02 13:11:42;;;;;;;12.70;2.45;;;13.90;97.90;;;;;;4992057;28;19922;-75
2022/11/02 13:14:13;;;;;;;15.45;2.00;;;13.80;97.50;;;;;;4992256;28;20113;-74
2022/11/02 13:16:53;;;;;;;7.60;2.15;;;13.70;97.80;;;;;;4992271;28;20053;-74